East Laurinburg, North Carolina
Current Conditions -  °F | °C
As of 8:52 AM on Sunday 23 Nov 2014 (Local Time) from KMEB Reporting Station
Light Rain Light Rain  
Wind Chill: 42°   Ceiling: 11000
Heat Index: 46°   Visibility: 5mi
Dew Point: 44°   Wind: 7mph
Humidity: 93%   Direction: 50°NE
Pressure: 30.23"   Gusts: NA
Location:  34.7588°N, 79.4468°W
Report Text: KMEB 231352Z AUTO 05006KT 5SM -RA BR OVC110 08/07 A3023 RMK AO2 RAE1255B35 SLP237 P0000 T00780067
Loading
Personal Weather Stations






























Interactive Weather Map New forecast layout! Learn more

10-Day Weather Forecast

Advertisements
Track Severe Weather on mobile